createdAt,value
2023-04-15T00:00:46.878Z,4.43
2023-04-15T00:03:51.289Z,3.70
2023-04-15T00:06:54.820Z,3.97
2023-04-15T00:09:57.925Z,4.53
2023-04-15T00:16:02.346Z,4.97
2023-04-15T00:19:05.002Z,3.95
2023-04-15T00:22:07.203Z,4.60
2023-04-15T00:25:09.639Z,3.60
2023-04-15T00:28:11.748Z,3.83
2023-04-15T00:31:14.356Z,5.07
2023-04-15T00:34:16.782Z,5.18
2023-04-15T00:37:18.729Z,4.75
2023-04-15T00:40:21.960Z,3.40
2023-04-15T00:43:26.559Z,4.20
2023-04-15T00:46:31.143Z,4.43
2023-04-15T00:49:33.286Z,4.82
2023-04-15T00:52:37.321Z,3.83
2023-04-15T00:55:40.151Z,4.82
2023-04-15T00:58:42.143Z,3.80
2023-04-15T01:01:44.749Z,3.38
2023-04-15T01:04:47.219Z,4.60
2023-04-15T01:07:49.417Z,4.35
2023-04-15T01:10:51.255Z,5.27
2023-04-15T01:13:55.197Z,4.00
2023-04-15T01:16:57.650Z,4.25
2023-04-15T01:19:59.576Z,4.45
2023-04-15T01:23:01.562Z,4.07
2023-04-15T01:26:04.221Z,4.55
2023-04-15T01:29:06.825Z,4.22
2023-04-15T01:32:09.099Z,4.10
2023-04-15T01:35:10.991Z,4.25
2023-04-15T01:38:13.711Z,4.07
2023-04-15T01:41:15.658Z,4.07
2023-04-15T01:44:17.710Z,4.53
2023-04-15T01:47:19.674Z,4.20
2023-04-15T01:50:22.676Z,4.25
2023-04-15T01:53:27.678Z,4.00
2023-04-15T01:56:29.955Z,4.45
2023-04-15T01:59:32.289Z,6.78
2023-04-15T02:02:34.668Z,5.28
2023-04-15T02:05:36.720Z,4.47
2023-04-15T02:08:39.287Z,4.00
2023-04-15T02:11:42.644Z,5.07
2023-04-15T02:14:44.459Z,7.05
2023-04-15T02:17:51.078Z,4.35
2023-04-15T02:20:53.267Z,4.30
2023-04-15T02:23:55.115Z,4.27
2023-04-15T02:26:57.546Z,4.00
2023-04-15T02:29:59.469Z,4.68
2023-04-15T02:33:01.989Z,5.00
2023-04-15T02:36:04.480Z,3.92
2023-04-15T02:39:06.447Z,4.93
2023-04-15T02:45:12.998Z,5.30
2023-04-15T02:48:18.145Z,4.32
2023-04-15T02:51:21.705Z,5.40
2023-04-15T02:54:24.891Z,6.03
2023-04-15T03:00:33.488Z,3.85
2023-04-15T03:03:35.573Z,2.83
2023-04-15T03:06:37.652Z,4.00
2023-04-15T03:09:41.318Z,6.13
2023-04-15T03:12:43.774Z,4.15
2023-04-15T03:15:50.863Z,3.83
2023-04-15T03:18:52.839Z,5.53
2023-04-15T03:21:56.388Z,5.00
2023-04-15T03:24:58.503Z,3.90
2023-04-15T03:28:00.790Z,4.03
2023-04-15T03:31:02.737Z,4.32
2023-04-15T03:34:04.719Z,5.23
2023-04-15T03:37:06.890Z,3.63
2023-04-15T03:40:09.864Z,4.50
2023-04-15T03:43:12.305Z,4.18
2023-04-15T03:46:14.246Z,4.72
2023-04-15T03:49:16.446Z,5.43
2023-04-15T03:52:18.392Z,7.10
2023-04-15T03:55:20.773Z,4.47
2023-04-15T03:58:22.667Z,4.32
2023-04-15T04:01:24.677Z,5.93
2023-04-15T04:04:26.837Z,4.88
2023-04-15T04:07:28.983Z,4.00
2023-04-15T04:10:31.087Z,4.43
2023-04-15T04:13:33.086Z,3.83
2023-04-15T04:16:34.962Z,5.68
2023-04-15T04:19:36.902Z,4.78
2023-04-15T04:22:40.195Z,5.00
2023-04-15T04:25:42.554Z,6.57
2023-04-15T04:28:44.432Z,4.35
2023-04-15T04:31:47.059Z,5.70
2023-04-15T04:34:49.008Z,6.20
2023-04-15T04:37:51.035Z,3.40
2023-04-15T04:40:52.974Z,5.10
2023-04-15T04:43:54.892Z,5.00
2023-04-15T04:46:56.767Z,4.43
2023-04-15T04:49:58.654Z,3.65
2023-04-15T04:53:01.261Z,3.70
2023-04-15T04:56:03.658Z,3.22
2023-04-15T04:59:05.976Z,4.18
2023-04-15T05:02:07.943Z,3.88
2023-04-15T05:05:11.820Z,5.30
2023-04-15T05:08:13.712Z,4.55
2023-04-15T05:11:15.606Z,4.45
2023-04-15T05:14:17.573Z,5.45
2023-04-15T05:17:19.396Z,4.38
2023-04-15T05:20:21.447Z,4.55
2023-04-15T05:23:23.450Z,4.63
2023-04-15T05:26:25.439Z,4.22
2023-04-15T05:29:27.461Z,7.32
2023-04-15T05:32:29.382Z,3.90
2023-04-15T05:35:31.326Z,5.05
2023-04-15T05:38:33.365Z,3.42
2023-04-15T05:41:35.313Z,3.67
2023-04-15T05:44:37.238Z,4.13
2023-04-15T05:47:40.226Z,4.88
2023-04-15T05:53:46.046Z,3.53
2023-04-15T05:56:47.987Z,5.43
2023-04-15T05:59:52.441Z,4.45
2023-04-15T06:02:54.944Z,6.18
2023-04-15T06:05:56.834Z,4.88
2023-04-15T06:08:58.769Z,5.43
2023-04-15T06:12:01.988Z,5.78
2023-04-15T06:15:06.741Z,3.75
2023-04-15T06:18:08.597Z,4.88
2023-04-15T06:21:10.707Z,5.65
2023-04-15T06:24:12.936Z,3.63
2023-04-15T06:27:14.863Z,4.70
2023-04-15T06:30:17.162Z,4.22
2023-04-15T06:33:19.050Z,4.28
2023-04-15T06:36:21.224Z,4.22
2023-04-15T06:39:23.143Z,4.63
2023-04-15T06:42:25.133Z,5.07
2023-04-15T06:45:27.451Z,5.38
2023-04-15T06:48:29.430Z,6.13
2023-04-15T06:51:31.643Z,5.07
2023-04-15T06:54:33.557Z,4.95
2023-04-15T06:57:35.463Z,4.10
2023-04-15T07:00:39.334Z,3.28
2023-04-15T07:03:42.108Z,4.68
2023-04-15T07:06:44.703Z,4.43
2023-04-15T07:09:46.654Z,6.03
2023-04-15T07:12:49.408Z,5.07
2023-04-15T07:15:51.374Z,4.43
2023-04-15T07:18:53.220Z,4.63
2023-04-15T07:21:55.150Z,4.78
2023-04-15T07:24:57.051Z,4.47
2023-04-15T07:27:59.050Z,4.75
2023-04-15T07:31:01.223Z,5.63
2023-04-15T07:34:05.259Z,3.78
2023-04-15T07:37:07.429Z,4.63
2023-04-15T07:40:10.170Z,4.67
2023-04-15T07:43:13.565Z,6.45
2023-04-15T07:46:15.636Z,3.38
2023-04-15T07:49:19.417Z,5.37
2023-04-15T07:52:21.242Z,5.50
2023-04-15T07:55:23.603Z,4.72
2023-04-15T07:58:25.862Z,5.65
2023-04-15T08:01:27.853Z,4.82
2023-04-15T08:04:29.962Z,4.43
2023-04-15T08:07:32.732Z,4.60
2023-04-15T08:10:34.811Z,5.65
2023-04-15T08:13:36.656Z,4.60
2023-04-15T08:16:38.715Z,3.90
2023-04-15T08:19:41.050Z,3.93
2023-04-15T08:22:42.845Z,6.35
2023-04-15T08:25:44.744Z,3.85
2023-04-15T08:28:47.157Z,5.20
2023-04-15T08:31:49.173Z,5.85
2023-04-15T08:34:51.112Z,5.87
2023-04-15T08:37:53.003Z,4.97
2023-04-15T08:40:57.369Z,4.65
2023-04-15T08:44:05.189Z,5.70
2023-04-15T08:47:09.470Z,6.60
2023-04-15T08:50:12.011Z,5.35
2023-04-15T08:53:14.983Z,4.82
2023-04-15T08:59:21.407Z,5.45
2023-04-15T09:02:25.860Z,7.38
2023-04-15T09:05:27.840Z,4.85
2023-04-15T09:08:29.646Z,5.03
2023-04-15T09:11:31.599Z,4.57
2023-04-15T09:14:35.022Z,6.65
2023-04-15T09:17:43.194Z,58.78
2023-04-15T09:20:45.066Z,50.83
2023-04-15T09:23:58.506Z,25.60
2023-04-15T09:27:00.655Z,7.80
2023-04-15T09:30:02.484Z,7.00
2023-04-15T09:33:08.966Z,4.50
2023-04-15T09:36:11.021Z,5.30
2023-04-15T09:39:13.224Z,3.63
2023-04-15T09:42:15.236Z,4.47
2023-04-15T09:45:17.247Z,6.20
2023-04-15T09:48:31.174Z,3.63
2023-04-15T09:51:35.833Z,7.10
2023-04-15T09:54:38.806Z,5.78
2023-04-15T09:57:50.080Z,4.65
2023-04-15T10:00:53.300Z,4.60
2023-04-15T10:03:58.009Z,4.13
2023-04-15T10:07:02.225Z,5.60
2023-04-15T10:10:05.522Z,5.50
2023-04-15T10:13:08.265Z,4.32
2023-04-15T10:16:16.278Z,4.35
2023-04-15T10:19:21.969Z,4.80
2023-04-15T10:22:26.506Z,4.57
2023-04-15T10:25:29.639Z,3.20
2023-04-15T10:28:31.731Z,4.07
2023-04-15T10:31:34.257Z,3.73
2023-04-15T10:34:37.193Z,4.57
2023-04-15T10:40:41.242Z,3.10
2023-04-15T10:43:54.194Z,5.53
2023-04-15T10:46:58.941Z,3.65
2023-04-15T10:50:02.482Z,4.95
2023-04-15T10:53:07.458Z,4.63
2023-04-15T10:56:10.628Z,4.63
2023-04-15T10:59:12.520Z,4.20
2023-04-15T11:02:15.616Z,6.25
2023-04-15T11:05:19.059Z,3.65
2023-04-15T11:08:41.079Z,4.45
2023-04-15T11:12:06.257Z,5.82
2023-04-15T11:15:41.776Z,5.43
2023-04-15T11:18:54.343Z,3.65
2023-04-15T11:21:56.962Z,4.25
2023-04-15T11:24:58.824Z,4.57
2023-04-15T11:28:02.224Z,4.13
2023-04-15T11:31:12.022Z,4.53
2023-04-15T11:34:24.149Z,4.60
2023-04-15T11:37:30.438Z,7.38
2023-04-15T11:40:33.592Z,5.38
2023-04-15T11:43:35.657Z,4.47
2023-04-15T11:46:37.494Z,5.83
2023-04-15T11:49:41.680Z,4.70
2023-04-15T11:53:01.499Z,3.88
2023-04-15T11:56:03.430Z,4.90
2023-04-15T11:59:05.326Z,4.27
2023-04-15T12:02:14.363Z,4.65
2023-04-15T12:09:01.290Z,5.75
2023-04-15T12:12:03.353Z,4.95
2023-04-15T12:15:05.680Z,4.97
2023-04-15T12:18:17.881Z,4.25
2023-04-15T12:21:21.176Z,4.57
2023-04-15T12:24:23.613Z,5.05
2023-04-15T12:27:29.270Z,4.78
2023-04-15T12:30:32.457Z,4.60
2023-04-15T12:33:34.966Z,6.50
2023-04-15T12:36:37.334Z,7.30
2023-04-15T12:39:41.591Z,4.78
2023-04-15T12:42:43.465Z,5.32
2023-04-15T12:45:45.321Z,8.05
2023-04-15T12:48:47.589Z,5.07
2023-04-15T12:51:51.140Z,4.70
2023-04-15T12:54:53.715Z,5.10
2023-04-15T12:57:55.554Z,6.43
2023-04-15T13:00:57.551Z,4.95
2023-04-15T13:03:59.589Z,4.43
2023-04-15T13:07:02.508Z,5.13
2023-04-15T13:13:06.387Z,4.82
2023-04-15T13:16:08.488Z,4.47
2023-04-15T13:19:10.418Z,4.50
2023-04-15T13:22:12.596Z,4.47
2023-04-15T13:25:14.553Z,5.63
2023-04-15T13:28:16.509Z,5.33
2023-04-15T13:31:18.461Z,4.13
2023-04-15T13:34:20.385Z,4.57
2023-04-15T13:37:27.412Z,5.90
2023-04-15T13:40:29.361Z,5.47
2023-04-15T13:43:31.842Z,6.17
2023-04-15T13:46:33.888Z,4.32
2023-04-15T13:49:35.763Z,4.83
2023-04-15T13:52:37.736Z,5.47
2023-04-15T13:55:41.800Z,5.07
2023-04-15T13:58:43.822Z,4.82
2023-04-15T14:01:45.783Z,7.93
2023-04-15T14:04:47.707Z,5.90
2023-04-15T14:07:49.656Z,5.50
2023-04-15T14:10:51.573Z,5.63
2023-04-15T14:13:53.434Z,5.07
2023-04-15T14:16:56.749Z,4.72
2023-04-15T14:19:58.751Z,4.90
2023-04-15T14:23:00.990Z,7.37
2023-04-15T14:26:02.862Z,5.07
2023-04-15T14:29:05.136Z,7.67
2023-04-15T14:32:12.310Z,4.38
2023-04-15T14:35:14.816Z,4.65
2023-04-15T14:38:16.993Z,5.40
2023-04-15T14:41:19.728Z,6.47
2023-04-15T14:44:23.095Z,6.93
2023-04-15T14:47:27.070Z,4.38
2023-04-15T14:50:30.664Z,5.50
2023-04-15T14:53:33.251Z,6.20
2023-04-15T14:56:36.350Z,6.22
2023-04-15T14:59:39.669Z,6.93
2023-04-15T15:02:43.197Z,6.18
2023-04-15T15:05:47.796Z,7.55
2023-04-15T15:08:51.352Z,7.28
2023-04-15T15:11:53.710Z,5.45
2023-04-15T15:14:56.367Z,5.38
2023-04-15T15:17:58.973Z,4.93
2023-04-15T15:21:02.685Z,5.97
2023-04-15T15:24:06.588Z,5.20
2023-04-15T15:27:09.701Z,3.78
2023-04-15T15:30:13.502Z,4.35
2023-04-15T15:33:18.507Z,4.85
2023-04-15T15:36:21.905Z,5.20
2023-04-15T15:39:25.363Z,16.33
2023-04-15T15:42:35.058Z,12.50
2023-04-15T15:45:38.677Z,19.30
2023-04-15T15:48:42.093Z,18.77
2023-04-15T15:51:46.436Z,12.68
2023-04-15T15:54:50.372Z,7.55
2023-04-15T15:57:55.092Z,16.50
2023-04-15T16:00:58.757Z,10.25
2023-04-15T16:04:01.763Z,7.15
2023-04-15T16:07:04.539Z,6.53
2023-04-15T16:10:07.081Z,11.82
2023-04-15T16:13:10.408Z,9.40
2023-04-15T16:16:12.493Z,13.23
2023-04-15T16:19:14.410Z,21.60
2023-04-15T16:22:16.419Z,9.07
2023-04-15T16:25:18.584Z,6.73
2023-04-15T16:28:26.456Z,8.52
2023-04-15T16:31:29.060Z,7.97
2023-04-15T16:34:31.102Z,6.57
2023-04-15T16:37:33.417Z,7.07
2023-04-15T16:40:35.306Z,5.72
2023-04-15T16:43:37.265Z,5.88
2023-04-15T16:46:40.875Z,5.73
2023-04-15T16:49:42.996Z,5.93
2023-04-15T16:52:44.855Z,4.65
2023-04-15T16:55:46.806Z,6.93
2023-04-15T16:58:48.711Z,4.63
2023-04-15T17:01:50.817Z,5.53
2023-04-15T17:04:52.746Z,5.57
2023-04-15T17:07:55.240Z,5.40
2023-04-15T17:10:58.220Z,6.88
2023-04-15T17:14:00.125Z,8.18
2023-04-15T17:17:02.088Z,7.03
2023-04-15T17:20:04.633Z,5.05
2023-04-15T17:23:06.669Z,5.25
2023-04-15T17:26:08.751Z,6.13
2023-04-15T17:29:10.632Z,5.53
2023-04-15T17:32:12.611Z,4.63
2023-04-15T17:35:17.054Z,4.43
2023-04-15T17:38:18.920Z,4.32
2023-04-15T17:41:20.860Z,4.05
2023-04-15T17:44:25.073Z,7.10
2023-04-15T17:47:27.962Z,4.13
2023-04-15T17:50:29.966Z,4.95
2023-04-15T17:53:31.885Z,4.05
2023-04-15T17:56:35.263Z,3.93
2023-04-15T17:59:37.285Z,5.60
2023-04-15T18:02:39.788Z,4.00
2023-04-15T18:05:42.786Z,4.75
2023-04-15T18:11:48.452Z,5.32
2023-04-15T18:14:50.629Z,4.57
2023-04-15T18:17:52.710Z,4.82
2023-04-15T18:20:54.633Z,5.00
2023-04-15T18:23:56.623Z,5.93
2023-04-15T18:26:59.296Z,5.10
2023-04-15T18:30:02.478Z,3.90
2023-04-15T18:33:05.575Z,4.70
2023-04-15T18:36:07.649Z,3.97
2023-04-15T18:39:10.129Z,5.60
2023-04-15T18:42:12.209Z,4.88
2023-04-15T18:45:14.328Z,5.83
2023-04-15T18:48:17.696Z,4.05
2023-04-15T18:51:19.683Z,4.40
2023-04-15T18:54:21.755Z,4.43
2023-04-15T18:57:31.268Z,7.27
2023-04-15T19:03:43.499Z,4.72
2023-04-15T19:06:46.649Z,6.50
2023-04-15T19:09:49.125Z,4.22
2023-04-15T19:12:51.076Z,9.60
2023-04-15T19:15:53.063Z,5.28
2023-04-15T19:18:54.968Z,5.23
2023-04-15T19:21:56.855Z,5.10
2023-04-15T19:24:58.897Z,6.25
2023-04-15T19:28:00.770Z,4.63
2023-04-15T19:31:04.065Z,4.45
2023-04-15T19:34:06.456Z,6.00
2023-04-15T19:37:08.428Z,5.28
2023-04-15T19:40:10.719Z,8.77
2023-04-15T19:43:12.678Z,5.07
2023-04-15T19:46:14.727Z,4.30
2023-04-15T19:49:16.893Z,6.63
2023-04-15T19:52:18.818Z,6.47
2023-04-15T19:55:20.994Z,5.22
2023-04-15T19:58:22.877Z,4.53
2023-04-15T20:01:24.751Z,5.45
2023-04-15T20:04:27.449Z,4.82
2023-04-15T20:07:29.449Z,5.75
2023-04-15T20:10:31.907Z,5.05
2023-04-15T20:13:33.919Z,4.70
2023-04-15T20:16:38.331Z,5.43
2023-04-15T20:19:40.257Z,4.43
2023-04-15T20:22:42.467Z,7.85
2023-04-15T20:25:45.458Z,4.07
2023-04-15T20:31:49.200Z,3.83
2023-04-15T20:34:51.300Z,3.63
2023-04-15T20:37:53.390Z,4.30
2023-04-15T20:40:55.279Z,3.93
2023-04-15T20:43:57.114Z,4.97
2023-04-15T20:46:58.950Z,3.97
2023-04-15T20:50:00.998Z,3.63
2023-04-15T20:53:04.461Z,5.40
2023-04-15T20:56:06.575Z,4.78
2023-04-15T20:59:08.488Z,4.47
2023-04-15T21:02:10.689Z,5.05
2023-04-15T21:05:12.644Z,4.38
2023-04-15T21:08:14.581Z,4.60
2023-04-15T21:11:28.421Z,4.88
2023-04-15T21:14:40.665Z,5.20
2023-04-15T21:17:42.665Z,3.83
2023-04-15T21:20:44.673Z,4.73
2023-04-15T21:23:46.609Z,4.30
2023-04-15T21:26:48.560Z,5.50
2023-04-15T21:29:50.471Z,4.45
2023-04-15T21:32:52.398Z,5.72
2023-04-15T21:35:54.698Z,3.35
2023-04-15T21:38:56.604Z,4.55
2023-04-15T21:41:59.623Z,4.47
2023-04-15T21:48:08.044Z,6.30
2023-04-15T21:51:10.514Z,5.10
2023-04-15T21:54:12.353Z,4.63
2023-04-15T21:57:14.308Z,4.68
2023-04-15T22:00:16.564Z,4.65
2023-04-15T22:03:18.705Z,4.40
2023-04-15T22:06:21.153Z,5.85
2023-04-15T22:09:23.090Z,4.60
2023-04-15T22:12:25.021Z,4.28
2023-04-15T22:15:27.498Z,5.72
2023-04-15T22:18:29.302Z,5.07
2023-04-15T22:21:31.976Z,6.35
2023-04-15T22:24:40.452Z,3.60
2023-04-15T22:27:42.644Z,5.18
2023-04-15T22:30:44.553Z,5.97
2023-04-15T22:33:46.482Z,4.25
2023-04-15T22:36:49.391Z,4.88
2023-04-15T22:39:51.998Z,4.32
2023-04-15T22:42:53.884Z,5.47
2023-04-15T22:45:56.697Z,4.72
2023-04-15T22:52:00.713Z,4.70
2023-04-15T22:55:02.709Z,5.30
2023-04-15T22:58:04.686Z,5.10
2023-04-15T23:01:06.617Z,3.70
2023-04-15T23:04:09.522Z,5.82
2023-04-15T23:07:13.013Z,6.22
2023-04-15T23:10:14.877Z,6.63
2023-04-15T23:13:16.742Z,4.85
2023-04-15T23:16:18.800Z,4.90
2023-04-15T23:19:20.818Z,4.97
2023-04-15T23:22:22.742Z,5.15
2023-04-15T23:25:24.582Z,5.55
2023-04-15T23:28:26.444Z,5.68
2023-04-15T23:31:28.332Z,4.72
2023-04-15T23:34:30.298Z,4.60
2023-04-15T23:37:32.196Z,4.57
2023-04-15T23:40:34.171Z,3.67
2023-04-15T23:43:36.157Z,5.80
2023-04-15T23:46:38.064Z,4.90
2023-04-15T23:49:41.082Z,4.20
2023-04-15T23:55:44.749Z,4.55
2023-04-15T23:58:46.675Z,4.78
